Time;durP1;ratioP1;P1;durP2;ratioP2;P2;SDS_P1;SDS_P2;PMS_P1;PMS_P2;Temp;Humidity;BMP_temperature;BMP_pressure;BME280_temperature;BME280_humidity;BME280_pressure;Samples;Min_cycle;Max_cycle;Signal;HPM_P1;HPM_P2
2022/06/11 00:00:20;;;;;;;7.22;4.22;;;;;;;15.74;100.00;102057.94;4951669;28;20487;-68
2022/06/11 00:02:45;;;;;;;10.52;5.22;;;;;;;15.70;100.00;102056.97;4969482;28;20030;-69
2022/06/11 00:05:11;;;;;;;6.68;4.20;;;;;;;15.66;100.00;102059.47;4968752;28;20116;-68
2022/06/11 00:07:36;;;;;;;5.88;4.18;;;;;;;15.63;100.00;102057.66;4969227;28;20069;-69
2022/06/11 00:10:04;;;;;;;6.60;4.38;;;;;;;15.59;100.00;102059.28;4969078;28;20026;-68
2022/06/11 00:12:30;;;;;;;5.75;4.15;;;;;;;15.59;100.00;102048.84;4969374;28;20035;-68
2022/06/11 00:14:55;;;;;;;9.32;4.93;;;;;;;15.59;100.00;102048.84;4968656;28;20440;-69
2022/06/11 00:17:23;;;;;;;8.10;4.63;;;;;;;15.63;100.00;102057.66;4969335;28;20210;-68
2022/06/11 00:19:48;;;;;;;8.15;4.55;;;;;;;15.66;100.00;102056.84;4968873;28;20027;-68
2022/06/11 00:22:16;;;;;;;5.57;4.53;;;;;;;15.70;100.00;102056.09;4969212;28;20050;-68
2022/06/11 00:24:42;;;;;;;4.75;4.32;;;;;;;15.72;100.00;102062.28;4968569;28;20038;-68
2022/06/11 00:27:08;;;;;;;6.15;4.00;;;;;;;15.76;100.00;102061.50;4969050;28;20035;-68
2022/06/11 00:29:36;;;;;;;7.28;4.22;;;;;;;15.75;100.00;102054.53;4969302;28;20042;-68
2022/06/11 00:32:02;;;;;;;5.95;4.15;;;;;;;15.75;100.00;102049.28;4968668;28;20035;-69
2022/06/11 00:34:27;;;;;;;5.13;4.30;;;;;;;15.75;100.00;102054.53;4968698;28;20587;-68
2022/06/11 00:36:54;;;;;;;7.53;4.70;;;;;;;15.73;100.00;102061.41;4984058;28;20046;-68
2022/06/11 00:39:23;;;;;;;8.70;4.30;;;;;;;15.72;100.00;102054.44;4968811;28;20023;-68
2022/06/11 00:41:54;;;;;;;4.75;4.28;;;;;;;15.68;100.00;102057.78;4968464;28;20035;-68
2022/06/11 00:44:20;;;;;;;6.80;3.75;;;;;;;15.66;100.00;102054.25;4971640;28;20502;-69
2022/06/11 00:46:58;;;;;;;5.65;4.00;;;;;;;15.59;100.00;102056.69;4972492;28;20042;-68
2022/06/11 00:49:28;;;;;;;4.45;4.05;;;;;;;15.57;100.00;102053.13;4972315;28;20026;-68
2022/06/11 00:52:05;;;;;;;7.60;4.60;;;;;;;15.56;100.00;102050.47;4972557;28;20475;-68
2022/06/11 00:54:32;;;;;;;8.60;4.85;;;;;;;15.53;100.00;102048.63;4972337;28;20350;-69
2022/06/11 00:56:58;;;;;;;8.65;4.80;;;;;;;15.55;100.00;102046.97;4971628;28;20113;-68
2022/06/11 00:59:31;;;;;;;7.07;4.95;;;;;;;15.55;100.00;102041.75;4971967;28;20018;-68
2022/06/11 01:01:56;;;;;;;6.30;4.50;;;;;;;15.54;100.00;102046.91;4972168;28;20026;-69
2022/06/11 01:04:34;;;;;;;7.97;5.10;;;;;;;15.54;100.00;102049.53;4972331;28;20038;-68
2022/06/11 01:07:20;;;;;;;10.02;6.15;;;;;;;15.54;100.00;102052.16;4971363;28;20029;-68
2022/06/11 01:10:00;;;;;;;8.93;5.00;;;;;;;15.51;100.00;102045.09;4954731;28;20050;-68
2022/06/11 01:13:04;;;;;;;8.10;5.30;;;;;;;15.47;100.00;102040.63;4972007;28;20041;-69
2022/06/11 01:15:36;;;;;;;7.45;5.15;;;;;;;15.43;100.00;102042.25;4949154;28;20042;-68
2022/06/11 01:18:14;;;;;;;6.70;4.85;;;;;;;15.42;100.00;102042.19;4971581;28;20035;-68
2022/06/11 01:20:44;;;;;;;8.48;5.80;;;;;;;15.38;100.00;102040.34;4962983;28;20412;-68
2022/06/11 01:23:34;;;;;;;6.90;5.30;;;;;;;15.36;100.00;102038.56;4952680;29;20500;-68
2022/06/11 01:26:33;;;;;;;6.60;5.47;;;;;;;15.32;100.00;102036.69;4952172;29;20027;-68
2022/06/11 01:29:10;;;;;;;6.85;5.15;;;;;;;15.30;100.00;102040.97;4951636;29;20424;-69
2022/06/11 01:31:49;;;;;;;7.20;5.70;;;;;;;15.28;100.00;102041.75;4951946;29;20031;-69
2022/06/11 01:34:32;;;;;;;6.25;5.25;;;;;;;15.29;100.00;102044.41;4952113;28;20359;-69
2022/06/11 01:37:14;;;;;;;10.20;5.65;;;;;;;15.27;100.00;102038.28;4951481;29;20241;-68
2022/06/11 01:39:45;;;;;;;7.47;5.55;;;;;;;15.25;100.00;102038.22;4951467;29;20162;-68
2022/06/11 01:42:14;;;;;;;;;;;;;;;15.25;100.00;102032.13;4952524;29;20023;-68
2022/06/11 01:44:41;;;;;;;6.78;5.03;;;;;;;15.22;100.00;102032.91;4951961;29;19917;-68
2022/06/11 01:47:07;;;;;;;8.77;5.22;;;;;;;15.25;100.00;102038.22;4951492;29;20042;-69
2022/06/11 01:49:39;;;;;;;7.82;4.97;;;;;;;15.25;100.00;102038.22;4951854;29;20039;-68
2022/06/11 01:52:29;;;;;;;7.97;5.13;;;;;;;15.25;100.00;102035.59;4951820;29;20067;-68
2022/06/11 01:55:15;;;;;;;5.90;4.07;;;;;;;15.25;100.00;102032.13;4950718;28;20422;-69
2022/06/11 01:58:11;;;;;;;7.78;4.78;;;;;;;15.25;100.00;102032.13;4952039;29;20401;-68
2022/06/11 02:00:47;;;;;;;5.15;4.57;;;;;;;15.25;100.00;102026.91;4951347;29;20297;-68
2022/06/11 02:03:36;;;;;;;5.20;4.30;;;;;;;15.23;100.00;102028.56;4951634;29;20027;-68
2022/06/11 02:06:11;;;;;;;7.22;4.10;;;;;;;15.22;100.00;102038.13;4951129;29;20034;-68
2022/06/11 02:08:45;;;;;;;6.97;4.63;;;;;;;15.21;100.00;102036.34;4951248;29;20089;-68
2022/06/11 02:11:22;;;;;;;5.95;4.18;;;;;;;15.21;100.00;102030.25;4951544;29;20407;-68
2022/06/11 02:14:00;;;;;;;7.22;4.47;;;;;;;15.20;100.00;102028.47;4950156;29;20034;-68
2022/06/11 02:16:34;;;;;;;6.22;3.85;;;;;;;15.18;100.00;102027.53;4951461;29;20038;-68
2022/06/11 02:19:05;;;;;;;6.97;4.32;;;;;;;15.17;100.00;102033.59;4951108;29;20110;-68
2022/06/11 02:21:37;;;;;;;9.10;4.25;;;;;;;15.15;100.00;102036.16;4950023;29;20075;-69
2022/06/11 02:24:17;;;;;;;7.30;3.95;;;;;;;15.15;100.00;102030.94;4950234;28;20034;-69
2022/06/11 02:26:49;;;;;;;5.28;3.55;;;;;;;15.17;100.00;102041.41;4951474;29;20030;-68
2022/06/11 02:29:17;;;;;;;6.10;3.70;;;;;;;15.12;100.00;102036.94;4951220;29;20031;-68
2022/06/11 02:31:48;;;;;;;7.28;3.90;;;;;;;15.10;100.00;102036.00;4951483;29;20488;-68
2022/06/11 02:34:15;;;;;;;5.73;3.93;;;;;;;15.10;100.00;102038.63;4950713;29;20050;-68
2022/06/11 02:37:08;;;;;;;6.32;4.13;;;;;;;15.10;100.00;102045.56;4951111;29;20297;-68
2022/06/11 02:39:38;;;;;;;4.75;3.55;;;;;;;15.13;100.00;102053.47;4926221;29;20038;-68
2022/06/11 02:42:06;;;;;;;5.65;3.50;;;;;;;15.12;100.00;102050.00;4951121;29;20078;-68
2022/06/11 02:44:32;;;;;;;5.85;3.78;;;;;;;15.12;100.00;102044.78;4950587;28;20123;-69
2022/06/11 02:46:58;;;;;;;5.68;3.55;;;;;;;15.09;100.00;102044.66;4950551;29;20050;-68
2022/06/11 02:49:28;;;;;;;4.10;3.63;;;;;;;15.07;100.00;102048.97;4950827;29;20448;-68
2022/06/11 02:51:56;;;;;;;7.03;4.15;;;;;;;15.07;100.00;102055.91;4950884;29;20041;-68
2022/06/11 02:54:23;;;;;;;7.32;3.45;;;;;;;15.05;100.00;102050.66;4950934;29;20127;-68
2022/06/11 02:56:50;;;;;;;5.30;3.45;;;;;;;15.02;100.00;102055.72;4950690;29;20079;-68
2022/06/11 02:59:16;;;;;;;5.97;4.10;;;;;;;14.97;100.00;102057.31;4950265;29;20093;-69
2022/06/11 03:01:43;;;;;;;5.43;3.50;;;;;;;14.96;100.00;102055.56;4950667;29;20424;-68
2022/06/11 03:04:09;;;;;;;4.60;4.18;;;;;;;14.96;100.00;102059.06;4950522;29;20039;-68
2022/06/11 03:06:38;;;;;;;6.70;4.05;;;;;;;14.98;100.00;102060.00;4949199;28;20034;-69
2022/06/11 03:09:04;;;;;;;4.15;3.58;;;;;;;15.02;100.00;102065.31;4948642;29;20038;-68
2022/06/11 03:11:30;;;;;;;6.38;4.18;;;;;;;15.03;100.00;102062.75;4949165;29;20053;-68
2022/06/11 03:13:55;;;;;;;5.13;3.80;;;;;;;15.04;100.00;102064.50;4948983;29;20035;-68
2022/06/11 03:16:21;;;;;;;4.47;3.70;;;;;;;15.01;100.00;102067.03;4948764;29;20050;-68
2022/06/11 03:18:46;;;;;;;6.53;3.70;;;;;;;15.02;100.00;102070.53;4948470;29;20035;-68
2022/06/11 03:21:11;;;;;;;5.20;3.65;;;;;;;14.99;100.00;102072.19;4948055;29;20081;-67
2022/06/11 03:23:37;;;;;;;5.55;3.53;;;;;;;14.96;100.00;102072.09;4949428;29;20027;-68
2022/06/11 03:26:06;;;;;;;5.05;4.00;;;;;;;14.95;100.00;102069.44;4950341;29;20117;-68
2022/06/11 03:28:32;;;;;;;3.63;3.33;;;;;;;14.96;100.00;102079.94;4950513;29;20020;-68
2022/06/11 03:30:57;;;;;;;6.80;3.38;;;;;;;14.99;100.00;102087.88;4949803;29;20034;-68
2022/06/11 03:33:24;;;;;;;4.07;3.58;;;;;;;15.03;100.00;102081.03;4950537;29;20055;-68
2022/06/11 03:35:50;;;;;;;4.28;3.75;;;;;;;15.06;100.00;102085.44;4950322;29;20038;-68
2022/06/11 03:38:18;;;;;;;3.92;3.42;;;;;;;15.09;100.00;102094.25;4949492;29;20039;-69
2022/06/11 03:40:43;;;;;;;5.90;3.97;;;;;;;15.12;100.00;102094.38;4950237;29;20031;-68
2022/06/11 03:43:09;;;;;;;5.38;3.65;;;;;;;15.12;100.00;102094.38;4950339;29;20034;-68
2022/06/11 03:45:36;;;;;;;5.53;3.78;;;;;;;15.16;100.00;102095.38;4950035;29;20472;-67
2022/06/11 03:48:02;;;;;;;5.57;3.30;;;;;;;15.16;100.00;102099.69;4950389;29;20039;-68
2022/06/11 03:50:31;;;;;;;4.85;3.78;;;;;;;15.17;100.00;102102.34;4949806;29;20034;-68
2022/06/11 03:52:57;;;;;;;4.53;4.13;;;;;;;15.16;100.00;102110.13;4949980;29;20027;-67
2022/06/11 03:55:24;;;;;;;6.07;4.65;;;;;;;15.11;100.00;102108.25;4950525;29;20093;-68
2022/06/11 03:57:51;;;;;;;5.43;3.65;;;;;;;15.11;100.00;102113.47;4950496;29;20435;-68
2022/06/11 04:01:14;;;;;;;5.75;4.20;;;;;;;15.11;100.00;102121.31;4949528;29;20031;-68
2022/06/11 04:03:05;;;;;;;5.07;3.97;;;;;;;15.11;100.00;102116.09;4949785;29;20046;-68
2022/06/11 04:05:32;;;;;;;6.00;3.58;;;;;;;15.15;100.00;102121.44;4950177;29;20494;-68
2022/06/11 04:07:57;;;;;;;5.47;3.90;;;;;;;15.11;100.00;102123.91;4949680;29;20031;-68
2022/06/11 04:10:23;;;;;;;7.65;3.78;;;;;;;15.12;100.00;102125.72;4950146;29;20482;-68
2022/06/11 04:12:48;;;;;;;4.03;3.70;;;;;;;15.13;100.00;102118.75;4950098;29;20038;-68
2022/06/11 04:15:13;;;;;;;7.30;4.18;;;;;;;15.12;100.00;102120.50;4949977;29;20035;-69
2022/06/11 04:17:39;;;;;;;4.65;3.88;;;;;;;15.16;100.00;102131.03;4950195;28;20023;-68
2022/06/11 04:20:05;;;;;;;4.53;3.30;;;;;;;15.17;100.00;102130.19;4953823;29;20035;-68
2022/06/11 04:22:30;;;;;;;5.57;4.07;;;;;;;15.20;100.00;102127.69;4953636;29;20039;-68
2022/06/11 04:24:55;;;;;;;5.47;3.65;;;;;;;15.21;100.00;102132.06;4953291;28;20514;-69
2022/06/11 04:27:22;;;;;;;6.65;3.38;;;;;;;15.24;100.00;102137.38;4953652;29;20031;-68
2022/06/11 04:29:51;;;;;;;5.80;3.95;;;;;;;15.25;100.00;102133.94;4953585;29;20028;-67
2022/06/11 04:32:18;;;;;;;4.68;3.97;;;;;;;15.27;100.00;102140.13;4952901;29;20468;-68
2022/06/11 04:34:46;;;;;;;5.68;3.55;;;;;;;15.28;100.00;102149.72;4953317;29;20373;-68
2022/06/11 04:37:14;;;;;;;5.75;3.42;;;;;;;15.30;100.00;102139.31;4953375;29;20488;-68
2022/06/11 04:39:44;;;;;;;4.65;3.38;;;;;;;15.33;100.00;102144.63;4952929;28;20053;-68
2022/06/11 04:42:11;;;;;;;6.50;3.45;;;;;;;15.36;100.00;102152.59;4953219;29;20522;-68
2022/06/11 04:44:38;;;;;;;5.63;3.50;;;;;;;15.39;100.00;102151.78;4952141;29;20062;-68
2022/06/11 04:47:04;;;;;;;6.85;3.28;;;;;;;15.40;100.00;102144.00;4953273;29;20376;-68
2022/06/11 04:49:30;;;;;;;7.57;3.78;;;;;;;15.42;100.00;102144.03;4953090;29;20050;-68
2022/06/11 04:51:55;;;;;;;6.13;3.50;;;;;;;15.45;100.00;102159.84;4952785;29;20038;-69
2022/06/11 04:54:21;;;;;;;6.55;3.53;;;;;;;15.48;100.00;102154.72;4953136;29;20058;-68
2022/06/11 04:56:46;;;;;;;5.68;3.03;;;;;;;15.52;100.00;102153.97;4952850;29;20027;-69
2022/06/11 04:59:12;;;;;;;5.72;3.25;;;;;;;15.52;100.00;102151.38;4952485;29;20027;-68
2022/06/11 05:01:38;;;;;;;6.45;3.25;;;;;;;15.51;100.00;102151.31;4952355;29;20039;-67
2022/06/11 05:04:03;;;;;;;7.05;3.70;;;;;;;15.50;100.00;102142.59;4952884;29;20063;-69
2022/06/11 05:06:32;;;;;;;8.20;3.70;;;;;;;15.51;100.00;102143.47;4953059;29;20031;-68
2022/06/11 05:08:58;;;;;;;5.28;3.95;;;;;;;15.52;100.00;102140.91;4952123;29;20661;-68
2022/06/11 05:11:24;;;;;;;7.38;3.60;;;;;;;15.55;100.00;102150.56;4952682;29;20035;-68
2022/06/11 05:13:49;;;;;;;7.05;3.40;;;;;;;15.58;100.00;102159.38;4952585;28;20054;-68
2022/06/11 05:16:17;;;;;;;5.10;3.72;;;;;;;15.64;100.00;102156.09;4952806;29;20038;-69
2022/06/11 05:18:42;;;;;;;6.57;3.65;;;;;;;15.70;100.00;102158.00;4953016;29;20494;-68
2022/06/11 05:21:08;;;;;;;6.30;3.88;;;;;;;15.75;100.00;102151.19;4952515;29;20182;-67
2022/06/11 05:23:33;;;;;;;7.25;4.07;;;;;;;15.80;100.00;102162.69;4934846;29;20031;-68
2022/06/11 05:25:59;;;;;;;6.50;3.58;;;;;;;15.88;100.00;102162.03;4952302;29;20489;-68
2022/06/11 05:28:29;;;;;;;5.95;3.58;;;;;;;15.92;100.00;102156.06;4952440;28;20506;-68
2022/06/11 05:30:54;;;;;;;11.85;4.07;;;;;;;15.96;100.00;102157.91;4950897;29;20335;-69
2022/06/11 05:33:21;;;;;;;10.60;4.50;;;;;;;15.96;100.00;102157.91;4952320;29;20045;-68
2022/06/11 05:35:47;;;;;;;7.53;3.90;;;;;;;15.97;100.00;102159.72;4952306;29;20027;-68
2022/06/11 05:38:18;;;;;;;6.85;4.05;;;;;;;15.95;100.00;102162.28;4952012;29;20034;-68
2022/06/11 05:40:44;;;;;;;;;;;;;;;15.96;100.00;102165.75;4952536;29;20030;-68
2022/06/11 05:43:11;;;;;;;10.98;4.00;;;;;;;16.00;100.00;102159.84;4952466;29;19910;-69
2022/06/11 05:45:46;;;;;;;7.00;3.88;;;;;;;16.03;99.86;102159.91;4951891;29;20042;-69
2022/06/11 05:48:16;;;;;;;6.78;3.75;;;;;;;16.10;100.00;102170.56;4952488;29;20031;-67
2022/06/11 05:50:45;;;;;;;7.05;2.72;;;;;;;16.12;97.50;102175.00;4951751;29;20031;-68
2022/06/11 05:53:14;;;;;;;8.65;3.40;;;;;;;16.15;97.99;102168.97;4952099;29;20053;-68
2022/06/11 05:55:41;;;;;;;11.68;3.63;;;;;;;16.16;95.75;102168.13;4951631;29;20518;-69
2022/06/11 05:58:10;;;;;;;11.93;3.80;;;;;;;16.27;95.57;102164.13;4951905;29;20023;-68
2022/06/11 06:00:36;;;;;;;8.52;3.10;;;;;;;16.46;96.14;102161.16;4951267;29;20780;-69
2022/06/11 06:03:02;;;;;;;14.18;3.70;;;;;;;16.65;95.80;102166.06;4951493;29;20086;-68
2022/06/11 06:05:29;;;;;;;8.35;3.17;;;;;;;16.74;90.85;102169.75;4951711;29;20027;-67
2022/06/11 06:07:55;;;;;;;13.13;4.25;;;;;;;16.77;89.30;102168.13;4951455;29;20031;-68
2022/06/11 06:10:21;;;;;;;8.48;2.95;;;;;;;16.79;86.25;102169.06;4934267;29;20830;-68
2022/06/11 06:12:46;;;;;;;12.30;2.90;;;;;;;16.97;88.28;102167.75;4951710;29;20314;-68
2022/06/11 06:15:16;;;;;;;10.05;3.13;;;;;;;17.14;87.87;102173.47;4951497;29;20158;-69
2022/06/11 06:17:42;;;;;;;11.15;3.22;;;;;;;17.36;87.37;102170.53;4951337;29;20026;-68
2022/06/11 06:20:10;;;;;;;5.70;2.35;;;;;;;17.50;84.06;102176.97;4950572;29;20392;-69
2022/06/11 06:22:36;;;;;;;15.70;3.45;;;;;;;17.48;81.14;102173.47;4951034;29;20031;-68
2022/06/11 06:25:02;;;;;;;10.32;2.90;;;;;;;17.45;81.94;102181.22;4951760;29;20479;-68
2022/06/11 06:27:27;;;;;;;15.68;3.63;;;;;;;17.38;81.79;102184.53;4951182;29;20066;-68
2022/06/11 06:29:52;;;;;;;10.23;3.28;;;;;;;17.34;82.67;102180.09;4951168;29;20611;-68
2022/06/11 06:32:18;;;;;;;11.90;3.90;;;;;;;17.39;83.11;102181.97;4950366;29;20027;-68
2022/06/11 06:34:44;;;;;;;11.65;3.33;;;;;;;17.43;84.19;102190.75;4951065;29;20078;-69
2022/06/11 06:37:09;;;;;;;11.82;4.03;;;;;;;17.37;83.10;102193.25;4951056;29;20033;-69
2022/06/11 06:39:35;;;;;;;13.00;4.18;;;;;;;17.38;83.50;102195.00;4950784;29;20041;-69
2022/06/11 06:42:00;;;;;;;10.48;3.70;;;;;;;17.39;83.04;102199.41;4950369;28;20038;-69
2022/06/11 06:44:27;;;;;;;13.05;3.00;;;;;;;17.42;84.81;102202.09;4950518;29;20023;-69
2022/06/11 06:46:52;;;;;;;11.32;3.17;;;;;;;17.44;82.35;102196.91;4951547;29;20172;-68
2022/06/11 06:49:17;;;;;;;9.40;2.95;;;;;;;17.48;84.26;102197.03;4950621;29;20038;-68
2022/06/11 06:51:43;;;;;;;10.57;3.38;;;;;;;17.49;82.91;102198.78;4950913;29;20081;-68
2022/06/11 06:54:08;;;;;;;11.98;4.18;;;;;;;17.37;81.54;102194.16;4950646;29;20046;-68
2022/06/11 06:56:34;;;;;;;11.73;3.70;;;;;;;17.35;82.73;102193.22;4950573;29;20117;-68
2022/06/11 06:59:03;;;;;;;11.43;4.05;;;;;;;17.38;82.95;102197.63;4950523;29;20035;-68
2022/06/11 07:01:29;;;;;;;10.50;3.05;;;;;;;17.51;83.25;102198.81;4950565;29;20436;-68
2022/06/11 07:03:55;;;;;;;12.00;3.63;;;;;;;17.59;84.30;102197.28;4950687;29;20311;-68
2022/06/11 07:06:21;;;;;;;9.73;3.22;;;;;;;17.62;82.93;102186.00;4949873;29;20031;-68
2022/06/11 07:08:50;;;;;;;10.68;3.70;;;;;;;17.60;83.16;102196.44;4950192;29;20027;-68
2022/06/11 07:11:15;;;;;;;13.02;3.58;;;;;;;17.58;82.69;102197.25;4950414;29;20538;-68
2022/06/11 07:13:40;;;;;;;15.00;3.55;;;;;;;17.56;82.00;102191.09;4950481;29;20033;-68
2022/06/11 07:16:06;;;;;;;13.70;3.88;;;;;;;17.57;83.16;102185.00;4950059;29;20419;-68
2022/06/11 07:18:40;;;;;;;13.38;3.83;;;;;;;17.73;86.60;102175.75;4950401;29;20046;-69
2022/06/11 07:21:09;;;;;;;11.38;3.35;;;;;;;17.85;84.10;102175.16;4950228;29;20130;-68
2022/06/11 07:23:42;;;;;;;12.13;3.78;;;;;;;17.95;80.83;102182.38;4950306;29;20097;-69
2022/06/11 07:26:12;;;;;;;14.40;3.75;;;;;;;18.12;80.36;102172.28;4950369;29;20023;-69
2022/06/11 07:28:45;;;;;;;13.50;3.92;;;;;;;18.37;80.29;102190.28;4949807;29;20381;-68
2022/06/11 07:31:11;;;;;;;13.13;3.83;;;;;;;18.67;78.60;102194.38;4950286;29;20110;-69
2022/06/11 07:33:36;;;;;;;12.45;3.90;;;;;;;18.85;78.29;102190.38;4949788;29;20037;-69
2022/06/11 07:36:02;;;;;;;11.90;3.60;;;;;;;18.99;76.35;102188.00;4950344;29;20027;-68
2022/06/11 07:38:28;;;;;;;17.05;3.83;;;;;;;19.13;76.82;102204.03;4949889;29;20034;-68
2022/06/11 07:40:54;;;;;;;10.13;3.85;;;;;;;19.18;76.00;102202.38;4950359;29;20528;-68
2022/06/11 07:43:19;;;;;;;13.98;3.70;;;;;;;19.41;76.70;102193.97;4949804;29;20122;-68
2022/06/11 07:45:45;;;;;;;13.63;4.20;;;;;;;19.36;73.87;102203.53;4950071;29;20027;-68
2022/06/11 07:48:12;;;;;;;12.93;3.63;;;;;;;19.43;74.00;102192.28;4950160;29;20023;-69
2022/06/11 07:50:41;;;;;;;17.48;4.30;;;;;;;19.59;74.04;102196.91;4949422;29;20027;-68
2022/06/11 07:53:08;;;;;;;14.77;4.43;;;;;;;19.64;72.97;102201.38;4951804;28;20498;-69
2022/06/11 07:55:34;;;;;;;16.52;4.60;;;;;;;19.68;74.08;102195.28;4953866;29;20035;-68
2022/06/11 07:58:00;;;;;;;14.13;4.40;;;;;;;19.73;72.98;102189.22;4953782;29;20495;-69
2022/06/11 08:00:30;;;;;;;14.27;4.47;;;;;;;19.74;74.26;102196.22;4968395;28;20110;-69
2022/06/11 08:02:55;;;;;;;14.35;4.05;;;;;;;19.90;72.77;102192.97;4953347;29;20378;-69
2022/06/11 08:05:21;;;;;;;15.00;4.40;;;;;;;20.02;72.00;102201.91;4953780;29;20031;-68
2022/06/11 08:07:48;;;;;;;14.32;4.40;;;;;;;20.06;72.88;102203.75;4953690;29;20526;-68
2022/06/11 08:10:15;;;;;;;13.13;4.60;;;;;;;20.19;71.56;102209.16;4954026;29;20460;-69
2022/06/11 08:12:40;;;;;;;17.48;5.63;;;;;;;20.15;72.33;102214.41;4953178;29;20034;-69
2022/06/11 08:15:07;;;;;;;18.02;4.50;;;;;;;20.04;71.15;102213.31;4953946;29;20034;-68
2022/06/11 08:17:34;;;;;;;16.17;5.32;;;;;;;19.84;72.38;102219.16;4953304;29;20042;-68
2022/06/11 08:20:01;;;;;;;14.40;4.18;;;;;;;19.61;71.72;102217.09;4953235;29;20051;-69
2022/06/11 08:22:26;;;;;;;17.20;5.18;;;;;;;19.43;72.10;102225.53;4953169;29;20042;-69
2022/06/11 08:24:52;;;;;;;17.42;4.82;;;;;;;19.27;73.16;102224.41;4953625;29;20034;-69
2022/06/11 08:27:18;;;;;;;17.15;4.35;;;;;;;19.25;74.82;102229.63;4953186;29;20023;-69
2022/06/11 08:29:44;;;;;;;12.52;4.25;;;;;;;19.27;76.31;102227.91;4953224;29;20055;-69
2022/06/11 08:32:10;;;;;;;19.08;5.47;;;;;;;19.25;76.91;102231.38;4953287;29;20027;-68
2022/06/11 08:34:41;;;;;;;20.25;5.10;;;;;;;19.13;75.21;102235.56;4952652;29;20451;-69
2022/06/11 08:37:08;;;;;;;15.82;4.43;;;;;;;19.17;76.58;102236.50;4953351;29;20035;-69
2022/06/11 08:39:34;;;;;;;19.40;4.60;;;;;;;18.93;74.16;102235.13;4953407;29;20041;-69
2022/06/11 08:42:01;;;;;;;13.32;4.10;;;;;;;18.96;75.66;102230.81;4951436;29;20039;-68
2022/06/11 08:44:28;;;;;;;12.35;4.10;;;;;;;18.99;76.29;102231.75;4951742;28;20031;-68
2022/06/11 08:46:59;;;;;;;14.48;4.25;;;;;;;19.06;76.65;102238.88;4953172;29;20027;-68
2022/06/11 08:49:30;;;;;;;12.73;4.25;;;;;;;19.28;78.11;102234.06;4952960;29;20050;-68
2022/06/11 08:52:19;;;;;;;12.18;4.20;;;;;;;19.67;73.73;102230.34;4952848;29;20403;-69
2022/06/11 08:54:46;;;;;;;13.32;4.28;;;;;;;19.96;71.00;102230.75;4953137;29;20027;-68
2022/06/11 08:57:21;;;;;;;12.75;4.22;;;;;;;20.26;71.43;102232.06;4952953;29;20484;-69
2022/06/11 09:00:10;;;;;;;19.92;5.00;;;;;;;20.43;67.50;102227.06;4952597;29;20031;-69
2022/06/11 09:02:45;;;;;;;14.02;4.47;;;;;;;20.60;69.32;102228.97;4952329;29;20575;-68
2022/06/11 09:05:40;;;;;;;13.25;4.55;;;;;;;20.93;67.35;102224.97;4952656;28;20471;-69
2022/06/11 09:08:14;;;;;;;15.90;4.57;;;;;;;21.19;66.89;102220.88;4952674;29;20034;-68
2022/06/11 09:10:47;;;;;;;15.68;5.30;;;;;;;21.31;65.81;102226.25;4952489;29;20034;-68
2022/06/11 09:13:33;;;;;;;16.35;4.35;;;;;;;21.38;65.15;102221.03;4952378;29;20444;-68
2022/06/11 09:16:19;;;;;;;18.45;5.32;;;;;;;21.18;64.48;102219.09;4952326;29;20114;-69
2022/06/11 09:19:19;;;;;;;15.50;4.53;;;;;;;21.05;67.88;102223.34;4952557;29;20483;-68
2022/06/11 09:22:14;;;;;;;16.30;4.93;;;;;;;21.06;67.61;102217.22;4952299;29;20066;-69
2022/06/11 09:24:49;;;;;;;15.00;4.32;;;;;;;21.44;67.46;102210.53;4952042;29;20023;-69
2022/06/11 09:27:37;;;;;;;13.20;3.85;;;;;;;21.53;63.04;102217.63;4952443;29;20046;-69
2022/06/11 09:30:11;;;;;;;13.48;3.70;;;;;;;21.54;64.47;102228.19;4952017;28;20035;-69
2022/06/11 09:32:51;;;;;;;14.68;4.30;;;;;;;21.52;65.56;102219.38;4952342;29;20573;-69
2022/06/11 09:35:40;;;;;;;16.15;4.07;;;;;;;21.38;63.35;102221.03;4952200;29;20808;-69
2022/06/11 09:38:21;;;;;;;13.27;4.22;;;;;;;21.21;64.46;102224.38;4951837;29;20023;-70
2022/06/11 09:40:53;;;;;;;12.98;4.25;;;;;;;21.16;65.66;102231.38;4952066;29;20031;-69
2022/06/11 09:43:53;;;;;;;14.70;4.30;;;;;;;21.08;68.11;102232.16;4952006;29;20078;-69
2022/06/11 09:46:29;;;;;;;13.63;4.88;;;;;;;21.05;68.51;102228.63;4951791;29;20031;-69
2022/06/11 09:49:13;;;;;;;13.02;4.32;;;;;;;21.00;67.59;102236.50;4951510;29;20031;-68
2022/06/11 09:51:48;;;;;;;13.35;4.38;;;;;;;20.99;64.80;102240.00;4951987;29;20181;-69
2022/06/11 09:54:36;;;;;;;14.55;4.45;;;;;;;21.28;67.51;102239.38;4951944;29;20050;-69
2022/06/11 09:57:05;;;;;;;15.82;3.97;;;;;;;21.42;64.36;102231.63;4951857;29;20081;-69
2022/06/11 09:59:39;;;;;;;17.33;4.10;;;;;;;21.69;64.77;102231.81;4951465;29;20745;-68
2022/06/11 10:02:09;;;;;;;14.27;4.38;;;;;;;22.00;65.62;102224.13;4951742;29;20093;-69
2022/06/11 10:04:37;;;;;;;12.23;3.92;;;;;;;22.29;64.59;102220.75;4952017;29;20065;-69
2022/06/11 10:07:07;;;;;;;13.82;3.83;;;;;;;;;;4951987;29;20467;-69
2022/06/11 10:09:36;;;;;;;19.40;4.60;;;;;;;22.53;60.47;102221.75;4952031;29;20499;-69
2022/06/11 10:12:20;;;;;;;17.10;4.45;;;;;;;22.40;63.35;102225.19;4951181;29;20011;-69
2022/06/11 10:15:01;;;;;;;16.88;4.50;;;;;;;22.34;63.31;102220.81;4951331;28;20039;-69
2022/06/11 10:17:44;;;;;;;16.40;4.05;;;;;;;22.15;60.98;102215.41;4966002;28;20023;-69
2022/06/11 10:20:21;;;;;;;18.13;4.38;;;;;;;22.18;58.97;102220.72;4951228;29;20027;-69
2022/06/11 10:22:54;;;;;;;12.70;3.88;;;;;;;22.41;61.71;102219.91;4951291;29;20023;-69
2022/06/11 10:25:27;;;;;;;11.95;3.60;;;;;;;22.43;61.63;102219.97;4951343;29;20031;-69
2022/06/11 10:28:11;;;;;;;11.30;3.72;;;;;;;22.34;58.25;102220.81;4950868;29;20054;-69
2022/06/11 10:31:16;;;;;;;9.88;2.67;;;;;;;22.52;60.79;102219.97;4951129;29;20042;-70
2022/06/11 10:33:57;;;;;;;10.43;2.90;;;;;;;22.78;62.78;102218.31;4933846;29;20074;-69
2022/06/11 10:36:43;;;;;;;12.80;3.45;;;;;;;22.81;57.42;102220.09;4950935;29;20038;-69
2022/06/11 10:39:39;;;;;;;14.40;3.40;;;;;;;22.55;56.47;102217.38;4950862;28;20125;-68
2022/06/11 10:42:12;;;;;;;13.63;3.22;;;;;;;22.48;58.62;102219.97;4947990;29;20043;-69
2022/06/11 10:44:38;;;;;;;9.63;3.03;;;;;;;22.59;58.99;102215.63;4950887;29;20114;-69
2022/06/11 10:47:16;;;;;;;10.10;3.60;;;;;;;22.62;54.43;102220.94;4951016;29;20035;-69
2022/06/11 10:49:43;;;;;;;12.40;3.28;;;;;;;22.60;55.17;102221.75;4951292;29;20396;-69
2022/06/11 10:52:37;;;;;;;10.05;3.28;;;;;;;22.74;58.24;102221.84;4950951;29;20031;-69
2022/06/11 10:55:06;;;;;;;11.80;2.88;;;;;;;22.94;58.71;102221.00;4950867;29;20027;-69
2022/06/11 10:57:33;;;;;;;11.48;3.03;;;;;;;23.03;54.45;102216.63;4950778;29;20106;-69
2022/06/11 11:00:15;;;;;;;10.02;3.33;;;;;;;23.13;56.50;102224.56;4950177;29;20570;-69
2022/06/11 11:03:13;;;;;;;8.85;2.90;;;;;;;23.24;55.41;102219.28;4950613;29;20402;-69
2022/06/11 11:05:52;;;;;;;12.90;3.63;;;;;;;23.30;54.75;102224.56;4949853;29;20039;-69
2022/06/11 11:08:18;;;;;;;12.57;3.28;;;;;;;23.32;53.95;102219.25;4950639;29;20031;-69
2022/06/11 11:10:47;;;;;;;10.10;3.50;;;;;;;23.53;55.81;102214.91;4950399;29;20033;-70
2022/06/11 11:13:23;;;;;;;12.25;3.17;;;;;;;23.63;56.63;102214.00;4950593;29;20031;-69
2022/06/11 11:16:21;;;;;;;12.32;3.75;;;;;;;23.69;57.80;102208.69;4950481;29;20035;-70
2022/06/11 11:19:02;;;;;;;11.68;4.30;;;;;;;23.77;55.41;102207.78;4965084;28;20031;-69
2022/06/11 11:21:38;;;;;;;13.73;3.45;;;;;;;23.76;55.78;102204.28;4950259;29;20105;-69
2022/06/11 11:24:12;;;;;;;13.88;4.07;;;;;;;23.85;57.60;102201.59;4950468;29;20078;-69
2022/06/11 11:26:42;;;;;;;10.00;3.28;;;;;;;23.90;57.10;102204.25;4949680;28;20031;-70
2022/06/11 11:29:48;;;;;;;10.83;3.70;;;;;;;23.69;54.93;102200.75;4950430;29;20511;-69
2022/06/11 11:32:35;;;;;;;13.68;3.60;;;;;;;23.80;58.98;102197.22;4939494;29;20551;-69
2022/06/11 11:35:22;;;;;;;10.27;3.05;;;;;;;24.00;60.19;102199.78;4949990;29;20427;-69
2022/06/11 11:38:02;;;;;;;11.40;3.45;;;;;;;24.16;57.88;102195.34;4950109;29;20032;-69